sensor_id;sensor_type;location;lat;lon;timestamp;temperature;humidity
7254;DHT22;4060;49.186;9.226;2024-02-04T00:01:14;11.20;77.20
7254;DHT22;4060;49.186;9.226;2024-02-04T00:03:44;11.10;77.10
7254;DHT22;4060;49.186;9.226;2024-02-04T00:06:14;11.10;77.10
7254;DHT22;4060;49.186;9.226;2024-02-04T00:08:46;11.10;77.10
7254;DHT22;4060;49.186;9.226;2024-02-04T00:11:18;11.10;77.20
7254;DHT22;4060;49.186;9.226;2024-02-04T00:13:48;11.10;77.20
7254;DHT22;4060;49.186;9.226;2024-02-04T00:16:18;11.10;77.20
7254;DHT22;4060;49.186;9.226;2024-02-04T00:18:48;11.10;77.20
7254;DHT22;4060;49.186;9.226;2024-02-04T00:21:21;11.10;77.20
7254;DHT22;4060;49.186;9.226;2024-02-04T00:23:50;11.10;77.20
7254;DHT22;4060;49.186;9.226;2024-02-04T00:26:22;11.10;77.20
7254;DHT22;4060;49.186;9.226;2024-02-04T00:28:51;11.10;77.20
7254;DHT22;4060;49.186;9.226;2024-02-04T00:31:21;11.10;77.10
7254;DHT22;4060;49.186;9.226;2024-02-04T00:33:51;11.10;77.10
7254;DHT22;4060;49.186;9.226;2024-02-04T00:36:21;11.10;77.10
7254;DHT22;4060;49.186;9.226;2024-02-04T00:38:50;11.10;77.10
7254;DHT22;4060;49.186;9.226;2024-02-04T00:41:22;11.10;77.10
7254;DHT22;4060;49.186;9.226;2024-02-04T00:43:52;11.10;77.20
7254;DHT22;4060;49.186;9.226;2024-02-04T00:46:22;11.10;77.10
7254;DHT22;4060;49.186;9.226;2024-02-04T00:48:52;11.10;77.10
7254;DHT22;4060;49.186;9.226;2024-02-04T00:51:22;11.10;77.10
7254;DHT22;4060;49.186;9.226;2024-02-04T00:53:53;11.10;77.10
7254;DHT22;4060;49.186;9.226;2024-02-04T00:56:24;11.10;77.80
7254;DHT22;4060;49.186;9.226;2024-02-04T00:58:54;11.10;77.00
7254;DHT22;4060;49.186;9.226;2024-02-04T01:01:25;11.10;77.00
7254;DHT22;4060;49.186;9.226;2024-02-04T01:03:54;11.10;77.00
7254;DHT22;4060;49.186;9.226;2024-02-04T01:06:25;11.10;76.90
7254;DHT22;4060;49.186;9.226;2024-02-04T01:08:56;11.10;76.90
7254;DHT22;4060;49.186;9.226;2024-02-04T01:11:29;11.10;76.90
7254;DHT22;4060;49.186;9.226;2024-02-04T01:14:00;11.10;76.90
7254;DHT22;4060;49.186;9.226;2024-02-04T01:16:30;11.10;76.90
7254;DHT22;4060;49.186;9.226;2024-02-04T01:19:00;11.10;76.90
7254;DHT22;4060;49.186;9.226;2024-02-04T01:21:29;11.10;76.80
7254;DHT22;4060;49.186;9.226;2024-02-04T01:23:59;11.10;76.90
7254;DHT22;4060;49.186;9.226;2024-02-04T01:26:31;11.10;76.80
7254;DHT22;4060;49.186;9.226;2024-02-04T01:29:03;11.10;76.90
7254;DHT22;4060;49.186;9.226;2024-02-04T01:31:33;11.10;76.80
7254;DHT22;4060;49.186;9.226;2024-02-04T01:34:03;11.10;76.80
7254;DHT22;4060;49.186;9.226;2024-02-04T01:36:34;11.10;76.80
7254;DHT22;4060;49.186;9.226;2024-02-04T01:39:04;11.10;76.80
7254;DHT22;4060;49.186;9.226;2024-02-04T01:41:37;11.10;76.90
7254;DHT22;4060;49.186;9.226;2024-02-04T01:44:07;11.10;76.90
7254;DHT22;4060;49.186;9.226;2024-02-04T01:46:37;11.10;76.90
7254;DHT22;4060;49.186;9.226;2024-02-04T01:49:08;11.10;76.90
7254;DHT22;4060;49.186;9.226;2024-02-04T01:51:38;11.10;76.90
7254;DHT22;4060;49.186;9.226;2024-02-04T01:54:08;11.10;76.80
7254;DHT22;4060;49.186;9.226;2024-02-04T01:56:39;11.10;76.90
7254;DHT22;4060;49.186;9.226;2024-02-04T01:59:10;11.10;76.90
7254;DHT22;4060;49.186;9.226;2024-02-04T02:01:43;11.10;76.90
7254;DHT22;4060;49.186;9.226;2024-02-04T02:04:13;11.10;76.80
7254;DHT22;4060;49.186;9.226;2024-02-04T02:06:43;11.10;76.90
7254;DHT22;4060;49.186;9.226;2024-02-04T02:09:13;11.10;76.90
7254;DHT22;4060;49.186;9.226;2024-02-04T02:11:47;11.10;76.90
7254;DHT22;4060;49.186;9.226;2024-02-04T02:14:23;11.10;76.90
7254;DHT22;4060;49.186;9.226;2024-02-04T02:16:57;11.10;76.90
7254;DHT22;4060;49.186;9.226;2024-02-04T02:19:44;11.10;76.80
7254;DHT22;4060;49.186;9.226;2024-02-04T02:22:28;11.10;76.90
7254;DHT22;4060;49.186;9.226;2024-02-04T02:25:03;11.10;76.80
7254;DHT22;4060;49.186;9.226;2024-02-04T02:27:32;11.10;76.90
7254;DHT22;4060;49.186;9.226;2024-02-04T02:30:09;11.10;76.90
7254;DHT22;4060;49.186;9.226;2024-02-04T02:32:39;11.10;76.90
7254;DHT22;4060;49.186;9.226;2024-02-04T02:35:09;11.10;76.80
7254;DHT22;4060;49.186;9.226;2024-02-04T02:37:43;11.00;76.80
7254;DHT22;4060;49.186;9.226;2024-02-04T02:40:23;11.10;76.90
7254;DHT22;4060;49.186;9.226;2024-02-04T02:42:56;11.10;76.90
7254;DHT22;4060;49.186;9.226;2024-02-04T02:45:27;11.10;76.80
7254;DHT22;4060;49.186;9.226;2024-02-04T02:48:00;11.10;76.90
7254;DHT22;4060;49.186;9.226;2024-02-04T02:50:30;11.10;76.90
7254;DHT22;4060;49.186;9.226;2024-02-04T02:53:00;11.10;76.90
7254;DHT22;4060;49.186;9.226;2024-02-04T02:55:32;11.10;76.80
7254;DHT22;4060;49.186;9.226;2024-02-04T02:58:02;11.10;76.80
7254;DHT22;4060;49.186;9.226;2024-02-04T03:00:32;11.10;76.80
7254;DHT22;4060;49.186;9.226;2024-02-04T03:03:02;11.10;76.80
7254;DHT22;4060;49.186;9.226;2024-02-04T03:05:31;11.10;76.80
7254;DHT22;4060;49.186;9.226;2024-02-04T03:08:01;11.10;76.80
7254;DHT22;4060;49.186;9.226;2024-02-04T03:10:32;11.10;76.80
7254;DHT22;4060;49.186;9.226;2024-02-04T03:13:02;11.10;76.80
7254;DHT22;4060;49.186;9.226;2024-02-04T03:15:32;11.00;76.70
7254;DHT22;4060;49.186;9.226;2024-02-04T03:18:02;11.00;76.60
7254;DHT22;4060;49.186;9.226;2024-02-04T03:20:33;11.00;76.60
7254;DHT22;4060;49.186;9.226;2024-02-04T03:23:04;11.00;76.50
7254;DHT22;4060;49.186;9.226;2024-02-04T03:25:36;11.00;76.50
7254;DHT22;4060;49.186;9.226;2024-02-04T03:28:06;11.10;76.60
7254;DHT22;4060;49.186;9.226;2024-02-04T03:30:36;11.10;76.60
7254;DHT22;4060;49.186;9.226;2024-02-04T03:33:05;11.10;76.60
7254;DHT22;4060;49.186;9.226;2024-02-04T03:35:35;11.00;76.40
7254;DHT22;4060;49.186;9.226;2024-02-04T03:38:05;11.00;76.40
7254;DHT22;4060;49.186;9.226;2024-02-04T03:40:36;11.00;76.50
7254;DHT22;4060;49.186;9.226;2024-02-04T03:43:10;11.00;76.40
7254;DHT22;4060;49.186;9.226;2024-02-04T03:45:40;11.00;76.30
7254;DHT22;4060;49.186;9.226;2024-02-04T03:48:10;11.00;76.30
7254;DHT22;4060;49.186;9.226;2024-02-04T03:50:41;11.10;76.50
7254;DHT22;4060;49.186;9.226;2024-02-04T03:53:11;11.10;76.40
7254;DHT22;4060;49.186;9.226;2024-02-04T03:55:43;11.00;76.40
7254;DHT22;4060;49.186;9.226;2024-02-04T03:58:12;11.00;76.30
7254;DHT22;4060;49.186;9.226;2024-02-04T04:00:42;11.00;76.30
7254;DHT22;4060;49.186;9.226;2024-02-04T04:03:12;11.10;76.30
7254;DHT22;4060;49.186;9.226;2024-02-04T04:05:42;11.10;76.30
7254;DHT22;4060;49.186;9.226;2024-02-04T04:08:12;11.00;76.20
7254;DHT22;4060;49.186;9.226;2024-02-04T04:10:44;11.00;76.20
7254;DHT22;4060;49.186;9.226;2024-02-04T04:13:17;11.00;76.20
7254;DHT22;4060;49.186;9.226;2024-02-04T04:15:47;11.00;76.20
7254;DHT22;4060;49.186;9.226;2024-02-04T04:18:17;11.10;76.30
7254;DHT22;4060;49.186;9.226;2024-02-04T04:20:47;11.00;76.20
7254;DHT22;4060;49.186;9.226;2024-02-04T04:23:17;11.00;76.10
7254;DHT22;4060;49.186;9.226;2024-02-04T04:25:49;11.10;76.30
7254;DHT22;4060;49.186;9.226;2024-02-04T04:28:19;11.00;76.20
7254;DHT22;4060;49.186;9.226;2024-02-04T04:30:48;11.00;76.20
7254;DHT22;4060;49.186;9.226;2024-02-04T04:33:18;11.00;76.10
7254;DHT22;4060;49.186;9.226;2024-02-04T04:35:48;11.00;76.10
7254;DHT22;4060;49.186;9.226;2024-02-04T04:38:17;11.00;76.20
7254;DHT22;4060;49.186;9.226;2024-02-04T04:40:49;11.00;76.10
7254;DHT22;4060;49.186;9.226;2024-02-04T04:43:19;11.00;76.10
7254;DHT22;4060;49.186;9.226;2024-02-04T04:45:50;11.00;76.00
7254;DHT22;4060;49.186;9.226;2024-02-04T04:48:21;11.00;76.10
7254;DHT22;4060;49.186;9.226;2024-02-04T04:50:51;11.00;76.00
7254;DHT22;4060;49.186;9.226;2024-02-04T04:53:21;11.00;76.00
7254;DHT22;4060;49.186;9.226;2024-02-04T04:55:54;11.00;76.10
7254;DHT22;4060;49.186;9.226;2024-02-04T04:58:25;11.00;76.10
7254;DHT22;4060;49.186;9.226;2024-02-04T05:00:54;11.00;76.00
7254;DHT22;4060;49.186;9.226;2024-02-04T05:03:24;11.00;76.00
7254;DHT22;4060;49.186;9.226;2024-02-04T05:05:53;11.00;76.10
7254;DHT22;4060;49.186;9.226;2024-02-04T05:08:23;11.00;76.20
7254;DHT22;4060;49.186;9.226;2024-02-04T05:10:56;11.00;76.30
7254;DHT22;4060;49.186;9.226;2024-02-04T05:13:25;11.00;76.20
7254;DHT22;4060;49.186;9.226;2024-02-04T05:15:55;11.10;76.30
7254;DHT22;4060;49.186;9.226;2024-02-04T05:18:26;11.00;76.20
7254;DHT22;4060;49.186;9.226;2024-02-04T05:20:56;11.00;76.30
7254;DHT22;4060;49.186;9.226;2024-02-04T05:23:26;11.00;76.30
7254;DHT22;4060;49.186;9.226;2024-02-04T05:26:04;11.00;76.30
7254;DHT22;4060;49.186;9.226;2024-02-04T05:28:34;11.00;76.30
7254;DHT22;4060;49.186;9.226;2024-02-04T05:31:03;11.00;76.30
7254;DHT22;4060;49.186;9.226;2024-02-04T05:33:34;11.00;76.30
7254;DHT22;4060;49.186;9.226;2024-02-04T05:36:04;11.00;76.30
7254;DHT22;4060;49.186;9.226;2024-02-04T05:38:34;11.00;76.30
7254;DHT22;4060;49.186;9.226;2024-02-04T05:41:07;11.00;76.30
7254;DHT22;4060;49.186;9.226;2024-02-04T05:43:39;11.00;76.30
7254;DHT22;4060;49.186;9.226;2024-02-04T05:46:10;11.00;76.30
7254;DHT22;4060;49.186;9.226;2024-02-04T05:48:41;11.00;76.40
7254;DHT22;4060;49.186;9.226;2024-02-04T05:51:12;11.00;76.40
7254;DHT22;4060;49.186;9.226;2024-02-04T05:53:41;11.00;76.50
7254;DHT22;4060;49.186;9.226;2024-02-04T05:56:21;11.00;76.50
7254;DHT22;4060;49.186;9.226;2024-02-04T05:58:51;11.00;76.60
7254;DHT22;4060;49.186;9.226;2024-02-04T06:01:21;11.00;76.60
7254;DHT22;4060;49.186;9.226;2024-02-04T06:03:51;11.00;76.60
7254;DHT22;4060;49.186;9.226;2024-02-04T06:06:21;11.00;76.70
7254;DHT22;4060;49.186;9.226;2024-02-04T06:08:50;11.00;76.60
7254;DHT22;4060;49.186;9.226;2024-02-04T06:11:24;11.00;76.60
7254;DHT22;4060;49.186;9.226;2024-02-04T06:13:53;11.00;76.70
7254;DHT22;4060;49.186;9.226;2024-02-04T06:16:23;11.00;76.70
7254;DHT22;4060;49.186;9.226;2024-02-04T06:18:54;11.00;76.60
7254;DHT22;4060;49.186;9.226;2024-02-04T06:21:25;11.00;76.70
7254;DHT22;4060;49.186;9.226;2024-02-04T06:23:55;11.00;76.60
7254;DHT22;4060;49.186;9.226;2024-02-04T06:26:29;11.00;76.60
7254;DHT22;4060;49.186;9.226;2024-02-04T06:28:59;11.00;76.50
7254;DHT22;4060;49.186;9.226;2024-02-04T06:31:29;11.00;76.50
7254;DHT22;4060;49.186;9.226;2024-02-04T06:33:58;10.90;76.40
7254;DHT22;4060;49.186;9.226;2024-02-04T06:36:28;11.00;76.50
7254;DHT22;4060;49.186;9.226;2024-02-04T06:38:58;11.00;76.50
7254;DHT22;4060;49.186;9.226;2024-02-04T06:41:30;10.90;76.30
7254;DHT22;4060;49.186;9.226;2024-02-04T06:44:02;11.00;76.50
7254;DHT22;4060;49.186;9.226;2024-02-04T06:46:31;10.90;76.30
7254;DHT22;4060;49.186;9.226;2024-02-04T06:49:01;10.90;76.30
7254;DHT22;4060;49.186;9.226;2024-02-04T06:51:31;11.00;76.30
7254;DHT22;4060;49.186;9.226;2024-02-04T06:54:02;11.00;76.30
7254;DHT22;4060;49.186;9.226;2024-02-04T06:56:35;11.00;76.30
7254;DHT22;4060;49.186;9.226;2024-02-04T06:59:04;11.00;76.30
7254;DHT22;4060;49.186;9.226;2024-02-04T07:01:34;10.90;76.20
7254;DHT22;4060;49.186;9.226;2024-02-04T07:04:04;11.00;76.30
7254;DHT22;4060;49.186;9.226;2024-02-04T07:06:34;10.90;76.10
7254;DHT22;4060;49.186;9.226;2024-02-04T07:09:04;11.00;76.20
7254;DHT22;4060;49.186;9.226;2024-02-04T07:11:36;11.00;76.10
7254;DHT22;4060;49.186;9.226;2024-02-04T07:14:07;11.00;76.20
7254;DHT22;4060;49.186;9.226;2024-02-04T07:16:39;10.90;76.10
7254;DHT22;4060;49.186;9.226;2024-02-04T07:19:10;11.00;76.20
7254;DHT22;4060;49.186;9.226;2024-02-04T07:21:40;11.00;76.10
7254;DHT22;4060;49.186;9.226;2024-02-04T07:24:09;11.00;76.10
7254;DHT22;4060;49.186;9.226;2024-02-04T07:26:41;11.00;76.00
7254;DHT22;4060;49.186;9.226;2024-02-04T07:29:13;11.00;76.00
7254;DHT22;4060;49.186;9.226;2024-02-04T07:31:43;11.00;76.10
7254;DHT22;4060;49.186;9.226;2024-02-04T07:34:13;11.00;76.00
7254;DHT22;4060;49.186;9.226;2024-02-04T07:36:44;11.00;76.00
7254;DHT22;4060;49.186;9.226;2024-02-04T07:39:14;11.00;76.00
7254;DHT22;4060;49.186;9.226;2024-02-04T07:41:46;11.00;76.00
7254;DHT22;4060;49.186;9.226;2024-02-04T07:44:15;11.00;76.00
7254;DHT22;4060;49.186;9.226;2024-02-04T07:46:45;11.00;76.00
7254;DHT22;4060;49.186;9.226;2024-02-04T07:49:15;11.00;76.00
7254;DHT22;4060;49.186;9.226;2024-02-04T07:51:45;11.00;76.00
7254;DHT22;4060;49.186;9.226;2024-02-04T07:54:15;11.00;76.00
7254;DHT22;4060;49.186;9.226;2024-02-04T07:56:47;11.00;75.90
7254;DHT22;4060;49.186;9.226;2024-02-04T07:59:17;11.00;76.00
7254;DHT22;4060;49.186;9.226;2024-02-04T08:01:47;11.00;75.90
7254;DHT22;4060;49.186;9.226;2024-02-04T08:04:17;11.00;75.90
7254;DHT22;4060;49.186;9.226;2024-02-04T08:06:48;11.00;76.00
7254;DHT22;4060;49.186;9.226;2024-02-04T08:09:20;11.00;76.00
7254;DHT22;4060;49.186;9.226;2024-02-04T08:11:51;11.00;75.90
7254;DHT22;4060;49.186;9.226;2024-02-04T08:14:21;11.00;76.00
7254;DHT22;4060;49.186;9.226;2024-02-04T08:16:51;11.00;76.00
7254;DHT22;4060;49.186;9.226;2024-02-04T08:19:23;11.00;76.00
7254;DHT22;4060;49.186;9.226;2024-02-04T08:21:52;11.00;75.90
7254;DHT22;4060;49.186;9.226;2024-02-04T08:24:22;11.00;75.90
7254;DHT22;4060;49.186;9.226;2024-02-04T08:26:54;11.00;76.00
7254;DHT22;4060;49.186;9.226;2024-02-04T08:29:24;11.00;76.00
7254;DHT22;4060;49.186;9.226;2024-02-04T08:31:55;11.00;76.00
7254;DHT22;4060;49.186;9.226;2024-02-04T08:34:26;11.00;76.00
7254;DHT22;4060;49.186;9.226;2024-02-04T08:36:56;11.10;76.10
7254;DHT22;4060;49.186;9.226;2024-02-04T08:39:26;11.00;76.00
7254;DHT22;4060;49.186;9.226;2024-02-04T08:42:00;11.00;76.00
7254;DHT22;4060;49.186;9.226;2024-02-04T08:44:31;11.00;76.00
7254;DHT22;4060;49.186;9.226;2024-02-04T08:47:01;11.00;76.00
7254;DHT22;4060;49.186;9.226;2024-02-04T08:49:31;11.00;76.00
7254;DHT22;4060;49.186;9.226;2024-02-04T08:52:04;11.00;76.00
7254;DHT22;4060;49.186;9.226;2024-02-04T08:54:35;11.00;76.10
7254;DHT22;4060;49.186;9.226;2024-02-04T08:57:07;11.00;76.00
7254;DHT22;4060;49.186;9.226;2024-02-04T08:59:36;11.00;76.10
7254;DHT22;4060;49.186;9.226;2024-02-04T09:02:06;11.00;76.10
7254;DHT22;4060;49.186;9.226;2024-02-04T09:04:35;11.00;76.10
7254;DHT22;4060;49.186;9.226;2024-02-04T09:07:08;11.10;76.20
7254;DHT22;4060;49.186;9.226;2024-02-04T09:09:38;11.10;76.20
7254;DHT22;4060;49.186;9.226;2024-02-04T09:12:12;11.10;76.10
7254;DHT22;4060;49.186;9.226;2024-02-04T09:14:43;11.10;76.20
7254;DHT22;4060;49.186;9.226;2024-02-04T09:17:13;11.10;76.20
7254;DHT22;4060;49.186;9.226;2024-02-04T09:19:43;11.10;76.10
7254;DHT22;4060;49.186;9.226;2024-02-04T09:22:13;11.10;76.10
7254;DHT22;4060;49.186;9.226;2024-02-04T09:24:43;11.10;76.10
7254;DHT22;4060;49.186;9.226;2024-02-04T09:27:15;11.10;76.10
7254;DHT22;4060;49.186;9.226;2024-02-04T09:29:45;11.10;76.10
7254;DHT22;4060;49.186;9.226;2024-02-04T09:32:14;11.10;76.00
7254;DHT22;4060;49.186;9.226;2024-02-04T09:34:44;11.10;76.00
7254;DHT22;4060;49.186;9.226;2024-02-04T09:37:13;11.10;76.00
7254;DHT22;4060;49.186;9.226;2024-02-04T09:39:43;11.10;76.00
7254;DHT22;4060;49.186;9.226;2024-02-04T09:42:20;11.10;76.00
7254;DHT22;4060;49.186;9.226;2024-02-04T09:44:50;11.10;76.00
7254;DHT22;4060;49.186;9.226;2024-02-04T09:47:21;11.10;75.90
7254;DHT22;4060;49.186;9.226;2024-02-04T09:49:51;11.10;75.90
7254;DHT22;4060;49.186;9.226;2024-02-04T09:52:30;11.20;75.90
7254;DHT22;4060;49.186;9.226;2024-02-04T09:55:02;11.20;75.90
7254;DHT22;4060;49.186;9.226;2024-02-04T09:57:35;11.20;75.90
7254;DHT22;4060;49.186;9.226;2024-02-04T10:00:06;11.20;75.80
7254;DHT22;4060;49.186;9.226;2024-02-04T10:02:36;11.20;75.80
7254;DHT22;4060;49.186;9.226;2024-02-04T10:05:06;11.20;75.80
7254;DHT22;4060;49.186;9.226;2024-02-04T10:07:37;11.20;76.50
7254;DHT22;4060;49.186;9.226;2024-02-04T10:10:10;11.20;75.70
7254;DHT22;4060;49.186;9.226;2024-02-04T10:12:45;11.20;75.60
7254;DHT22;4060;49.186;9.226;2024-02-04T10:15:16;11.20;75.60
7254;DHT22;4060;49.186;9.226;2024-02-04T10:17:47;11.20;75.60
7254;DHT22;4060;49.186;9.226;2024-02-04T10:20:17;11.20;75.60
7254;DHT22;4060;49.186;9.226;2024-02-04T10:22:47;11.20;75.60
7254;DHT22;4060;49.186;9.226;2024-02-04T10:25:28;11.20;75.50
7254;DHT22;4060;49.186;9.226;2024-02-04T10:28:04;11.20;75.60
7254;DHT22;4060;49.186;9.226;2024-02-04T10:30:33;11.20;75.50
7254;DHT22;4060;49.186;9.226;2024-02-04T10:33:03;11.20;75.50
7254;DHT22;4060;49.186;9.226;2024-02-04T10:35:33;11.20;75.50
7254;DHT22;4060;49.186;9.226;2024-02-04T10:38:03;11.20;75.50
7254;DHT22;4060;49.186;9.226;2024-02-04T10:40:34;11.20;75.50
7254;DHT22;4060;49.186;9.226;2024-02-04T10:43:05;11.20;75.40
7254;DHT22;4060;49.186;9.226;2024-02-04T10:45:40;11.30;75.50
7254;DHT22;4060;49.186;9.226;2024-02-04T10:48:14;11.30;75.60
7254;DHT22;4060;49.186;9.226;2024-02-04T10:50:47;11.30;75.50
7254;DHT22;4060;49.186;9.226;2024-02-04T10:53:20;11.30;75.40
7254;DHT22;4060;49.186;9.226;2024-02-04T10:55:53;11.30;75.40
7254;DHT22;4060;49.186;9.226;2024-02-04T10:58:31;11.30;75.40
7254;DHT22;4060;49.186;9.226;2024-02-04T11:01:01;11.30;75.40
7254;DHT22;4060;49.186;9.226;2024-02-04T11:03:33;11.30;75.40
7254;DHT22;4060;49.186;9.226;2024-02-04T11:06:05;11.30;75.30
7254;DHT22;4060;49.186;9.226;2024-02-04T11:08:36;11.30;75.30
7254;DHT22;4060;49.186;9.226;2024-02-04T11:11:07;11.30;75.30
7254;DHT22;4060;49.186;9.226;2024-02-04T11:13:41;11.30;75.30
7254;DHT22;4060;49.186;9.226;2024-02-04T11:16:21;11.30;75.30
7254;DHT22;4060;49.186;9.226;2024-02-04T11:19:07;11.30;75.30
7254;DHT22;4060;49.186;9.226;2024-02-04T11:25:07;11.30;75.30
7254;DHT22;4060;49.186;9.226;2024-02-04T11:27:42;11.30;75.30
7254;DHT22;4060;49.186;9.226;2024-02-04T11:30:15;11.30;75.30
7254;DHT22;4060;49.186;9.226;2024-02-04T11:32:47;11.30;75.20
7254;DHT22;4060;49.186;9.226;2024-02-04T11:35:19;11.40;75.30
7254;DHT22;4060;49.186;9.226;2024-02-04T11:37:54;11.40;75.40
7254;DHT22;4060;49.186;9.226;2024-02-04T11:40:29;11.40;75.40
7254;DHT22;4060;49.186;9.226;2024-02-04T11:43:11;11.40;75.30
7254;DHT22;4060;49.186;9.226;2024-02-04T11:45:46;11.40;75.30
7254;DHT22;4060;49.186;9.226;2024-02-04T11:48:16;11.40;75.30
7254;DHT22;4060;49.186;9.226;2024-02-04T11:50:53;11.40;75.30
7254;DHT22;4060;49.186;9.226;2024-02-04T11:53:24;11.40;75.60
7254;DHT22;4060;49.186;9.226;2024-02-04T11:55:57;11.40;75.30
7254;DHT22;4060;49.186;9.226;2024-02-04T11:58:28;11.40;75.20
7254;DHT22;4060;49.186;9.226;2024-02-04T12:01:10;11.40;75.30
7254;DHT22;4060;49.186;9.226;2024-02-04T12:03:42;11.40;75.20
7254;DHT22;4060;49.186;9.226;2024-02-04T12:06:12;11.50;75.40
7254;DHT22;4060;49.186;9.226;2024-02-04T12:08:44;11.50;75.40
7254;DHT22;4060;49.186;9.226;2024-02-04T12:11:15;11.50;76.10
7254;DHT22;4060;49.186;9.226;2024-02-04T12:13:46;11.50;75.30
7254;DHT22;4060;49.186;9.226;2024-02-04T12:16:20;11.50;75.30
7254;DHT22;4060;49.186;9.226;2024-02-04T12:18:51;11.50;75.20
7254;DHT22;4060;49.186;9.226;2024-02-04T12:21:22;11.50;75.20
7254;DHT22;4060;49.186;9.226;2024-02-04T12:23:52;11.50;75.20
7254;DHT22;4060;49.186;9.226;2024-02-04T12:26:23;11.50;75.10
7254;DHT22;4060;49.186;9.226;2024-02-04T12:28:53;11.50;75.10
7254;DHT22;4060;49.186;9.226;2024-02-04T12:31:27;11.50;75.00
7254;DHT22;4060;49.186;9.226;2024-02-04T12:33:59;11.50;75.00
7254;DHT22;4060;49.186;9.226;2024-02-04T12:36:30;11.50;75.00
7254;DHT22;4060;49.186;9.226;2024-02-04T12:39:02;11.50;75.00
7254;DHT22;4060;49.186;9.226;2024-02-04T12:41:38;11.50;75.10
7254;DHT22;4060;49.186;9.226;2024-02-04T12:44:09;11.50;75.00
7254;DHT22;4060;49.186;9.226;2024-02-04T12:46:42;11.50;75.10
7254;DHT22;4060;49.186;9.226;2024-02-04T12:49:20;11.50;75.00
7254;DHT22;4060;49.186;9.226;2024-02-04T12:51:51;11.50;75.10
7254;DHT22;4060;49.186;9.226;2024-02-04T12:54:23;11.50;75.00
7254;DHT22;4060;49.186;9.226;2024-02-04T12:56:54;11.50;75.10
7254;DHT22;4060;49.186;9.226;2024-02-04T12:59:25;11.50;75.00
7254;DHT22;4060;49.186;9.226;2024-02-04T13:02:02;11.60;75.10
7254;DHT22;4060;49.186;9.226;2024-02-04T13:04:36;11.60;75.10
7254;DHT22;4060;49.186;9.226;2024-02-04T13:07:08;11.60;75.10
7254;DHT22;4060;49.186;9.226;2024-02-04T13:09:36;11.50;75.70
7254;DHT22;4060;49.186;9.226;2024-02-04T13:12:08;11.50;74.90
7254;DHT22;4060;49.186;9.226;2024-02-04T13:14:38;11.60;75.10
7254;DHT22;4060;49.186;9.226;2024-02-04T13:17:11;11.60;75.10
7254;DHT22;4060;49.186;9.226;2024-02-04T13:19:47;11.60;75.10
7254;DHT22;4060;49.186;9.226;2024-02-04T13:22:17;11.60;75.10
7254;DHT22;4060;49.186;9.226;2024-02-04T13:24:46;11.50;74.90
7254;DHT22;4060;49.186;9.226;2024-02-04T13:27:17;11.60;75.10
7254;DHT22;4060;49.186;9.226;2024-02-04T13:29:52;11.60;75.00
7254;DHT22;4060;49.186;9.226;2024-02-04T13:32:23;11.60;75.00
7254;DHT22;4060;49.186;9.226;2024-02-04T13:34:56;11.60;75.00
7254;DHT22;4060;49.186;9.226;2024-02-04T13:37:25;11.60;75.00
7254;DHT22;4060;49.186;9.226;2024-02-04T13:39:55;11.60;75.00
7254;DHT22;4060;49.186;9.226;2024-02-04T13:42:25;11.60;75.10
7254;DHT22;4060;49.186;9.226;2024-02-04T13:44:55;11.60;75.00
7254;DHT22;4060;49.186;9.226;2024-02-04T13:47:27;11.60;75.00
7254;DHT22;4060;49.186;9.226;2024-02-04T13:49:56;11.60;75.00
7254;DHT22;4060;49.186;9.226;2024-02-04T13:52:25;11.60;75.10
7254;DHT22;4060;49.186;9.226;2024-02-04T13:54:55;11.60;75.00
7254;DHT22;4060;49.186;9.226;2024-02-04T13:57:25;11.60;75.10
7254;DHT22;4060;49.186;9.226;2024-02-04T13:59:56;11.60;75.00
7254;DHT22;4060;49.186;9.226;2024-02-04T14:02:29;11.60;75.00
7254;DHT22;4060;49.186;9.226;2024-02-04T14:05:00;11.60;75.00
7254;DHT22;4060;49.186;9.226;2024-02-04T14:07:30;11.60;75.00
7254;DHT22;4060;49.186;9.226;2024-02-04T14:10:01;11.60;74.90
7254;DHT22;4060;49.186;9.226;2024-02-04T14:12:31;11.60;75.00
7254;DHT22;4060;49.186;9.226;2024-02-04T14:15:01;11.60;75.00
7254;DHT22;4060;49.186;9.226;2024-02-04T14:17:33;11.60;75.00
7254;DHT22;4060;49.186;9.226;2024-02-04T14:20:03;11.60;75.00
7254;DHT22;4060;49.186;9.226;2024-02-04T14:22:33;11.60;75.00
7254;DHT22;4060;49.186;9.226;2024-02-04T14:25:05;11.60;75.10
7254;DHT22;4060;49.186;9.226;2024-02-04T14:27:35;11.60;75.00
7254;DHT22;4060;49.186;9.226;2024-02-04T14:30:06;11.60;75.00
7254;DHT22;4060;49.186;9.226;2024-02-04T14:32:41;11.60;75.10
7254;DHT22;4060;49.186;9.226;2024-02-04T14:35:11;11.60;75.10
7254;DHT22;4060;49.186;9.226;2024-02-04T14:37:42;11.60;75.10
7254;DHT22;4060;49.186;9.226;2024-02-04T14:40:13;11.60;75.10
7254;DHT22;4060;49.186;9.226;2024-02-04T14:42:43;11.60;75.10
7254;DHT22;4060;49.186;9.226;2024-02-04T14:45:14;11.60;75.10
7254;DHT22;4060;49.186;9.226;2024-02-04T14:47:46;11.60;75.10
7254;DHT22;4060;49.186;9.226;2024-02-04T14:50:16;11.60;75.20
7254;DHT22;4060;49.186;9.226;2024-02-04T14:52:46;11.60;75.10
7254;DHT22;4060;49.186;9.226;2024-02-04T14:55:16;11.60;75.20
7254;DHT22;4060;49.186;9.226;2024-02-04T14:57:46;11.60;75.20
7254;DHT22;4060;49.186;9.226;2024-02-04T15:00:16;11.60;75.20
7254;DHT22;4060;49.186;9.226;2024-02-04T15:02:51;11.60;75.30
7254;DHT22;4060;49.186;9.226;2024-02-04T15:05:20;11.60;75.30
7254;DHT22;4060;49.186;9.226;2024-02-04T15:07:51;11.60;75.40
7254;DHT22;4060;49.186;9.226;2024-02-04T15:10:21;11.60;75.40
7254;DHT22;4060;49.186;9.226;2024-02-04T15:12:52;11.60;75.40
7254;DHT22;4060;49.186;9.226;2024-02-04T15:15:23;11.60;75.50
7254;DHT22;4060;49.186;9.226;2024-02-04T15:17:55;11.60;76.30
7254;DHT22;4060;49.186;9.226;2024-02-04T15:20:25;11.60;75.50
7254;DHT22;4060;49.186;9.226;2024-02-04T15:22:55;11.60;75.50
7254;DHT22;4060;49.186;9.226;2024-02-04T15:25:27;11.60;75.60
7254;DHT22;4060;49.186;9.226;2024-02-04T15:27:57;11.60;75.60
7254;DHT22;4060;49.186;9.226;2024-02-04T15:30:28;11.60;75.60
7254;DHT22;4060;49.186;9.226;2024-02-04T15:33:01;11.60;75.60
7254;DHT22;4060;49.186;9.226;2024-02-04T15:35:31;11.60;75.60
7254;DHT22;4060;49.186;9.226;2024-02-04T15:38:01;11.60;75.60
7254;DHT22;4060;49.186;9.226;2024-02-04T15:40:31;11.60;75.70
7254;DHT22;4060;49.186;9.226;2024-02-04T15:43:00;11.60;75.70
7254;DHT22;4060;49.186;9.226;2024-02-04T15:45:32;11.60;75.70
7254;DHT22;4060;49.186;9.226;2024-02-04T15:48:05;11.60;75.70
7254;DHT22;4060;49.186;9.226;2024-02-04T15:50:35;11.60;75.70
7254;DHT22;4060;49.186;9.226;2024-02-04T15:53:06;11.60;75.60
7254;DHT22;4060;49.186;9.226;2024-02-04T15:55:36;11.60;75.60
7254;DHT22;4060;49.186;9.226;2024-02-04T15:58:06;11.60;75.60
7254;DHT22;4060;49.186;9.226;2024-02-04T16:00:36;11.60;75.70
7254;DHT22;4060;49.186;9.226;2024-02-04T16:03:09;11.60;75.70
7254;DHT22;4060;49.186;9.226;2024-02-04T16:05:40;11.60;75.70
7254;DHT22;4060;49.186;9.226;2024-02-04T16:08:11;11.60;75.70
7254;DHT22;4060;49.186;9.226;2024-02-04T16:10:42;11.60;75.70
7254;DHT22;4060;49.186;9.226;2024-02-04T16:13:15;11.60;76.40
7254;DHT22;4060;49.186;9.226;2024-02-04T16:15:46;11.60;75.70
7254;DHT22;4060;49.186;9.226;2024-02-04T16:18:23;11.60;75.70
7254;DHT22;4060;49.186;9.226;2024-02-04T16:20:53;11.60;75.70
7254;DHT22;4060;49.186;9.226;2024-02-04T16:23:24;11.60;75.70
7254;DHT22;4060;49.186;9.226;2024-02-04T16:25:56;11.60;75.70
7254;DHT22;4060;49.186;9.226;2024-02-04T16:28:26;11.60;75.70
7254;DHT22;4060;49.186;9.226;2024-02-04T16:30:55;11.60;75.70